CRP weather

Corpus Christi International Airport
Corpus Christi, Texas, United States

Public forecast

Using degrees Fahrenheit for public forecast. Weather courtesy of forecast.io.

Current aviation weather report (METAR) for Corpus Christi International Airport

Retrieved 2019/12/05 20:51 UTC (1 hour ago):

KCRP 052051Z 16010KT 10SM FEW041 FEW150 BKN250 28/16 A2995 RMK AO2 SLP141 T02780161 56028

Aviation forecast (TAF) for Corpus Christi International Airport

Retrieved 2019/12/05 18:30 UTC (3 hours ago):

TAF KCRP 051726Z 0518/0618 16012G16KT P6SM SCT025 BKN200 FM060200 17007KT 5SM BR BKN009 OVC150 FM060600 VRB03KT 3SM BR OVC006 TEMPO 0611/0614 1SM BR VV003 FM061600 34009KT P6SM SCT015